createdAt,value
2018-10-16T00:01:31.760Z,17.63
2018-10-16T00:04:00.823Z,18.07
2018-10-16T00:06:29.175Z,18.83
2018-10-16T00:08:57.671Z,18.33
2018-10-16T00:11:26.054Z,17.90
2018-10-16T00:13:54.478Z,20.83
2018-10-16T00:16:22.887Z,18.30
2018-10-16T00:18:51.701Z,21.83
2018-10-16T00:21:20.078Z,20.53
2018-10-16T00:23:48.461Z,20.53
2018-10-16T00:26:16.815Z,21.73
2018-10-16T00:28:45.199Z,22.33
2018-10-16T00:31:13.605Z,21.67
2018-10-16T00:33:42.025Z,27.23
2018-10-16T00:36:10.465Z,20.90
2018-10-16T00:38:38.958Z,24.43
2018-10-16T00:41:07.648Z,24.23
2018-10-16T00:43:36.051Z,24.03
2018-10-16T00:46:04.504Z,19.40
2018-10-16T00:48:32.957Z,25.20
2018-10-16T00:51:01.546Z,21.63
2018-10-16T00:53:30.049Z,21.87
2018-10-16T00:55:58.474Z,22.77
2018-10-16T00:58:27.009Z,18.23
2018-10-16T01:00:56.324Z,22.77
2018-10-16T01:03:24.734Z,18.03
2018-10-16T01:05:53.332Z,20.30
2018-10-16T01:08:21.767Z,19.87
2018-10-16T01:10:50.201Z,18.67
2018-10-16T01:13:18.667Z,29.57
2018-10-16T01:15:47.109Z,22.53
2018-10-16T01:18:15.519Z,21.70
2018-10-16T01:20:43.977Z,19.87
2018-10-16T01:23:12.445Z,18.17
2018-10-16T01:25:40.885Z,27.63
2018-10-16T01:28:09.524Z,24.17
2018-10-16T01:30:37.983Z,22.33
2018-10-16T01:33:06.386Z,25.97
2018-10-16T01:35:34.743Z,18.40
2018-10-16T01:38:03.179Z,25.73
2018-10-16T01:40:31.658Z,20.73
2018-10-16T01:43:00.150Z,22.37
2018-10-16T01:45:28.667Z,23.13
2018-10-16T01:47:57.885Z,22.63
2018-10-16T01:50:26.297Z,22.33
2018-10-16T01:52:54.703Z,28.70
2018-10-16T01:55:23.229Z,21.97
2018-10-16T01:57:51.836Z,21.83
2018-10-16T02:00:20.239Z,24.60
2018-10-16T02:02:48.665Z,24.07
2018-10-16T02:05:17.162Z,20.67
2018-10-16T02:07:45.596Z,23.03
2018-10-16T02:10:14.123Z,24.67
2018-10-16T02:12:42.548Z,20.40
2018-10-16T02:15:11.006Z,20.13
2018-10-16T02:17:40.327Z,20.03
2018-10-16T02:20:09.590Z,26.67
2018-10-16T02:22:38.681Z,22.47
2018-10-16T02:25:07.682Z,20.83
2018-10-16T02:27:36.127Z,21.13
2018-10-16T02:30:05.011Z,19.20
2018-10-16T02:32:34.074Z,21.40
2018-10-16T02:35:02.861Z,20.40
2018-10-16T02:37:31.351Z,24.80
2018-10-16T02:39:59.839Z,20.13
2018-10-16T02:42:28.262Z,27.63
2018-10-16T02:44:56.764Z,22.53
2018-10-16T02:47:25.172Z,27.67
2018-10-16T02:49:53.611Z,20.47
2018-10-16T02:52:22.525Z,17.47
2018-10-16T02:54:51.375Z,22.73
2018-10-16T02:57:19.869Z,28.73
2018-10-16T02:59:48.295Z,21.27
2018-10-16T03:02:16.880Z,20.27
2018-10-16T03:04:45.764Z,22.43
2018-10-16T03:07:14.167Z,22.23
2018-10-16T03:09:42.623Z,20.37
2018-10-16T03:12:11.126Z,21.47
2018-10-16T03:14:39.482Z,21.83
2018-10-16T03:17:08.120Z,22.83
2018-10-16T03:19:36.547Z,25.07
2018-10-16T03:22:05.018Z,21.73
2018-10-16T03:24:33.450Z,20.07
2018-10-16T03:27:02.221Z,24.53
2018-10-16T03:29:30.590Z,26.47
2018-10-16T03:31:59.688Z,28.97
2018-10-16T03:34:28.057Z,24.97
2018-10-16T03:36:56.574Z,21.13
2018-10-16T03:39:25.107Z,22.67
2018-10-16T03:41:53.481Z,22.33
2018-10-16T03:44:21.926Z,25.53
2018-10-16T03:46:50.503Z,23.43
2018-10-16T03:49:18.979Z,25.30
2018-10-16T03:51:47.396Z,30.87
2018-10-16T03:54:15.890Z,24.07
2018-10-16T03:56:44.245Z,21.27
2018-10-16T03:59:13.030Z,24.53
2018-10-16T04:01:41.397Z,22.90
2018-10-16T04:04:09.799Z,24.47
2018-10-16T04:06:38.267Z,25.57
2018-10-16T04:09:07.551Z,22.30
2018-10-16T04:11:35.978Z,23.17
2018-10-16T04:14:04.383Z,22.03
2018-10-16T04:16:32.944Z,31.93
2018-10-16T04:19:01.387Z,21.87
2018-10-16T04:21:38.540Z,21.87
2018-10-16T04:24:07.600Z,24.00
2018-10-16T04:26:36.004Z,28.23
2018-10-16T04:29:04.443Z,19.73
2018-10-16T04:31:32.896Z,26.90
2018-10-16T04:34:01.368Z,23.60
2018-10-16T04:36:30.127Z,25.07
2018-10-16T04:38:58.887Z,27.80
2018-10-16T04:41:27.569Z,25.30
2018-10-16T04:43:56.482Z,24.30
2018-10-16T04:46:26.231Z,25.30
2018-10-16T04:48:54.655Z,24.67
2018-10-16T04:51:23.093Z,25.90
2018-10-16T04:53:51.547Z,27.30
2018-10-16T04:56:20.067Z,25.70
2018-10-16T04:58:48.739Z,20.63
2018-10-16T05:01:17.314Z,31.97
2018-10-16T05:03:45.740Z,25.97
2018-10-16T05:06:14.171Z,21.50
2018-10-16T05:08:42.606Z,22.53
2018-10-16T05:11:11.043Z,23.30
2018-10-16T05:13:39.474Z,22.43
2018-10-16T05:16:07.922Z,28.70
2018-10-16T05:18:36.293Z,20.80
2018-10-16T05:21:05.054Z,25.23
2018-10-16T05:23:33.543Z,27.83
2018-10-16T05:26:02.009Z,21.50
2018-10-16T05:28:30.631Z,21.40
2018-10-16T05:30:59.144Z,20.63
2018-10-16T05:33:27.543Z,36.40
2018-10-16T05:35:56.007Z,23.27
2018-10-16T05:38:24.462Z,23.50
2018-10-16T05:40:52.944Z,23.33
2018-10-16T05:43:21.853Z,23.03
2018-10-16T05:45:50.462Z,23.40
2018-10-16T05:48:18.899Z,27.13
2018-10-16T05:50:47.275Z,20.83
2018-10-16T05:53:15.656Z,25.23
2018-10-16T05:55:44.057Z,24.37
2018-10-16T05:58:13.313Z,24.07
2018-10-16T06:00:43.327Z,26.63
2018-10-16T06:03:12.213Z,24.07
2018-10-16T06:05:40.652Z,27.17
2018-10-16T06:08:09.159Z,35.10
2018-10-16T06:10:37.783Z,26.27
2018-10-16T06:13:06.295Z,26.27
2018-10-16T06:15:34.724Z,22.60
2018-10-16T06:18:03.274Z,23.00
2018-10-16T06:20:31.734Z,23.93
2018-10-16T06:23:00.175Z,27.00
2018-10-16T06:25:28.657Z,26.13
2018-10-16T06:27:57.096Z,20.33
2018-10-16T06:30:25.481Z,22.90
2018-10-16T06:32:54.278Z,23.77
2018-10-16T06:35:22.807Z,25.90
2018-10-16T06:37:51.227Z,24.87
2018-10-16T06:40:19.633Z,22.17
2018-10-16T06:42:48.004Z,29.93
2018-10-16T06:45:16.476Z,22.23
2018-10-16T06:47:45.062Z,22.40
2018-10-16T06:50:14.276Z,25.33
2018-10-16T06:52:42.705Z,22.87
2018-10-16T06:55:11.658Z,27.77
2018-10-16T06:57:40.041Z,25.77
2018-10-16T07:00:08.669Z,24.50
2018-10-16T07:02:37.064Z,21.83
2018-10-16T07:05:07.106Z,22.87
2018-10-16T07:07:35.510Z,23.10
2018-10-16T07:10:04.072Z,33.13
2018-10-16T07:12:32.477Z,34.10
2018-10-16T07:15:00.975Z,28.50
2018-10-16T07:17:29.315Z,29.73
2018-10-16T07:19:57.747Z,26.20
2018-10-16T07:22:26.802Z,31.40
2018-10-16T07:24:55.274Z,26.90
2018-10-16T07:27:23.783Z,27.93
2018-10-16T07:29:52.459Z,23.83
2018-10-16T07:32:20.823Z,33.57
2018-10-16T07:34:49.774Z,27.87
2018-10-16T07:37:18.154Z,20.70
2018-10-16T07:39:46.605Z,24.67
2018-10-16T07:42:15.174Z,27.80
2018-10-16T07:44:43.570Z,25.97
2018-10-16T07:47:11.968Z,25.37
2018-10-16T07:49:40.348Z,25.97
2018-10-16T07:52:09.765Z,32.27
2018-10-16T07:54:38.549Z,30.70
2018-10-16T07:57:07.006Z,26.83
2018-10-16T07:59:35.395Z,21.43
2018-10-16T08:02:03.841Z,23.40
2018-10-16T08:04:32.329Z,24.50
2018-10-16T08:07:00.770Z,21.07
2018-10-16T08:09:29.999Z,25.47
2018-10-16T08:11:58.391Z,26.93
2018-10-16T08:14:26.808Z,19.77
2018-10-16T08:16:55.244Z,22.40
2018-10-16T08:19:23.748Z,22.60
2018-10-16T08:21:52.120Z,19.50
2018-10-16T08:24:20.505Z,25.60
2018-10-16T08:26:49.060Z,25.80
2018-10-16T08:29:18.072Z,15.93
2018-10-16T08:31:46.514Z,30.10
2018-10-16T08:34:15.017Z,22.40
2018-10-16T08:36:43.555Z,27.57
2018-10-16T08:39:19.424Z,19.60
2018-10-16T08:41:59.309Z,18.23
2018-10-16T08:44:42.717Z,22.83
2018-10-16T08:49:23.790Z,23.33
2018-10-16T08:51:53.462Z,28.20
2018-10-16T08:54:24.210Z,19.80
2018-10-16T08:56:52.941Z,19.97
2018-10-16T08:59:21.372Z,22.97
2018-10-16T09:01:49.826Z,24.37
2018-10-16T09:04:18.193Z,19.57
2018-10-16T09:06:46.677Z,22.77
2018-10-16T09:09:16.645Z,20.53
2018-10-16T09:11:46.352Z,25.57
2018-10-16T09:14:15.488Z,20.30
2018-10-16T09:16:43.916Z,19.17
2018-10-16T09:19:12.462Z,28.20
2018-10-16T09:21:40.865Z,23.37
2018-10-16T09:24:09.300Z,23.63
2018-10-16T09:26:37.748Z,27.77
2018-10-16T09:29:06.479Z,31.43
2018-10-16T09:31:35.518Z,21.10
2018-10-16T09:34:04.007Z,26.03
2018-10-16T09:36:32.557Z,26.37
2018-10-16T09:39:01.717Z,23.77
2018-10-16T09:41:30.920Z,29.87
2018-10-16T09:44:00.232Z,27.93
2018-10-16T09:46:29.329Z,29.17
2018-10-16T09:48:57.786Z,32.80
2018-10-16T09:51:26.192Z,29.97
2018-10-16T09:53:54.659Z,22.67
2018-10-16T09:56:23.224Z,31.23
2018-10-16T09:58:51.698Z,30.97
2018-10-16T10:01:25.313Z,30.10
2018-10-16T10:03:53.739Z,27.80
2018-10-16T10:06:22.668Z,28.47
2018-10-16T10:08:51.101Z,28.67
2018-10-16T10:11:19.927Z,33.47
2018-10-16T10:13:48.629Z,24.57
2018-10-16T10:16:17.484Z,23.13
2018-10-16T10:18:45.901Z,28.20
2018-10-16T10:21:14.339Z,30.77
2018-10-16T10:23:42.902Z,30.43
2018-10-16T10:26:11.374Z,25.50
2018-10-16T10:28:39.787Z,24.87
2018-10-16T10:31:08.238Z,27.17
2018-10-16T10:33:36.791Z,28.13
2018-10-16T10:36:05.866Z,25.27
2018-10-16T10:38:34.327Z,26.90
2018-10-16T10:41:02.916Z,22.27
2018-10-16T10:43:31.335Z,24.77
2018-10-16T10:45:59.741Z,25.77
2018-10-16T10:48:28.274Z,26.97
2018-10-16T10:50:56.813Z,24.40
2018-10-16T10:53:25.107Z,24.17
2018-10-16T10:55:53.521Z,23.97
2018-10-16T10:58:21.904Z,28.13
2018-10-16T11:00:50.292Z,25.33
2018-10-16T11:03:18.797Z,29.57
2018-10-16T11:05:47.082Z,22.13
2018-10-16T11:08:15.521Z,22.30
2018-10-16T11:10:43.949Z,26.13
2018-10-16T11:13:12.356Z,23.70
2018-10-16T11:15:40.820Z,23.87
2018-10-16T11:18:09.297Z,27.33
2018-10-16T11:20:37.684Z,23.33
2018-10-16T11:23:06.359Z,20.67
2018-10-16T11:25:34.703Z,26.33
2018-10-16T11:28:03.374Z,22.03
2018-10-16T11:30:31.872Z,27.40
2018-10-16T11:33:00.344Z,18.50
2018-10-16T11:35:29.243Z,23.13
2018-10-16T11:37:57.712Z,16.77
2018-10-16T11:40:26.119Z,23.30
2018-10-16T11:42:54.554Z,15.47
2018-10-16T11:45:22.991Z,19.67
2018-10-16T11:47:51.499Z,24.73
2018-10-16T11:50:19.921Z,19.73
2018-10-16T11:52:48.372Z,18.00
2018-10-16T11:55:16.785Z,11.97
2018-10-16T11:57:45.616Z,11.90
2018-10-16T12:00:17.153Z,12.17
2018-10-16T12:02:45.878Z,12.67
2018-10-16T12:05:14.436Z,14.03
2018-10-16T12:07:43.148Z,10.07
2018-10-16T12:10:11.561Z,15.03
2018-10-16T12:12:40.053Z,12.67
2018-10-16T12:15:08.666Z,9.20
2018-10-16T12:18:48.204Z,11.60
2018-10-16T12:21:19.109Z,13.07
2018-10-16T12:23:47.712Z,11.30
2018-10-16T12:26:16.874Z,9.23
2018-10-16T12:28:45.468Z,10.17
2018-10-16T12:31:14.067Z,7.50
2018-10-16T12:33:42.554Z,12.53
2018-10-16T12:36:10.971Z,13.03
2018-10-16T12:38:39.449Z,10.97
2018-10-16T12:41:07.900Z,13.97
2018-10-16T12:43:37.017Z,12.97
2018-10-16T12:46:05.769Z,12.63
2018-10-16T12:48:34.149Z,13.97
2018-10-16T12:51:03.201Z,8.90
2018-10-16T12:53:31.565Z,14.93
2018-10-16T12:56:01.251Z,9.30
2018-10-16T12:58:29.671Z,11.53
2018-10-16T13:00:58.132Z,10.13
2018-10-16T13:03:26.694Z,11.90
2018-10-16T13:05:55.119Z,10.10
2018-10-16T13:08:23.605Z,10.60
2018-10-16T13:10:51.991Z,16.27
2018-10-16T13:13:20.462Z,11.50
2018-10-16T13:15:48.982Z,17.93
2018-10-16T13:18:17.349Z,12.37
2018-10-16T13:20:46.017Z,13.03
2018-10-16T13:23:14.540Z,13.63
2018-10-16T13:25:43.268Z,14.53
2018-10-16T13:28:11.800Z,14.07
2018-10-16T13:30:40.171Z,10.47
2018-10-16T13:33:11.878Z,11.67
2018-10-16T13:35:40.454Z,15.57
2018-10-16T13:38:09.224Z,10.47
2018-10-16T13:40:37.916Z,10.70
2018-10-16T13:43:06.681Z,11.20
2018-10-16T13:45:35.266Z,11.87
2018-10-16T13:48:04.154Z,9.13
2018-10-16T13:50:32.631Z,12.47
2018-10-16T13:53:01.322Z,9.77
2018-10-16T13:55:30.059Z,13.53
2018-10-16T13:57:58.619Z,10.53
2018-10-16T14:00:27.306Z,15.73
2018-10-16T14:02:56.016Z,15.77
2018-10-16T14:05:24.805Z,11.97
2018-10-16T14:07:53.410Z,11.17
2018-10-16T14:10:21.907Z,12.10
2018-10-16T14:12:50.339Z,15.13
2018-10-16T14:15:19.068Z,15.40
2018-10-16T14:17:47.751Z,10.40
2018-10-16T14:20:16.335Z,15.73
2018-10-16T14:22:44.856Z,11.03
2018-10-16T14:25:14.810Z,9.60
2018-10-16T14:27:43.779Z,11.43
2018-10-16T14:30:13.471Z,8.93
2018-10-16T14:32:43.751Z,14.40
2018-10-16T14:35:12.949Z,15.93
2018-10-16T14:37:42.317Z,10.17
2018-10-16T14:40:13.225Z,13.00
2018-10-16T14:42:42.030Z,10.43
2018-10-16T14:45:12.154Z,11.33
2018-10-16T14:47:39.647Z,12.50
2018-10-16T14:50:09.043Z,10.77
2018-10-16T14:52:37.640Z,10.70
2018-10-16T14:55:06.582Z,12.53
2018-10-16T14:57:35.634Z,9.53
2018-10-16T15:00:04.339Z,11.10
2018-10-16T15:02:32.911Z,10.40
2018-10-16T15:05:01.533Z,11.77
2018-10-16T15:07:30.894Z,11.33
2018-10-16T15:09:59.565Z,7.90
2018-10-16T15:12:33.029Z,12.97
2018-10-16T15:15:02.727Z,9.17
2018-10-16T15:17:32.033Z,10.00
2018-10-16T15:20:01.185Z,8.87
2018-10-16T15:22:30.178Z,13.03
2018-10-16T15:24:59.046Z,9.73
2018-10-16T15:27:27.681Z,10.20
2018-10-16T15:29:56.234Z,9.57
2018-10-16T15:32:24.906Z,11.10
2018-10-16T15:34:53.488Z,10.57
2018-10-16T15:37:22.085Z,9.07
2018-10-16T15:39:50.744Z,11.07
2018-10-16T15:42:19.663Z,9.70
2018-10-16T15:44:48.588Z,11.77
2018-10-16T15:47:18.401Z,8.07
2018-10-16T15:49:47.222Z,9.53
2018-10-16T15:52:15.848Z,11.23
2018-10-16T15:54:44.618Z,7.67
2018-10-16T15:57:13.357Z,8.93
2018-10-16T15:59:42.083Z,10.27
2018-10-16T16:02:10.867Z,11.10
2018-10-16T16:04:39.523Z,8.00
2018-10-16T16:07:08.431Z,8.63
2018-10-16T16:09:37.344Z,6.93
2018-10-16T16:12:07.877Z,7.77
2018-10-16T16:14:36.829Z,7.27
2018-10-16T16:17:05.711Z,15.83
2018-10-16T16:19:34.731Z,8.80
2018-10-16T16:22:04.097Z,11.77
2018-10-16T16:24:32.906Z,17.33
2018-10-16T16:27:02.516Z,11.90
2018-10-16T16:29:31.603Z,10.30
2018-10-16T16:32:00.458Z,9.33
2018-10-16T16:34:29.492Z,11.10
2018-10-16T16:37:03.122Z,8.60
2018-10-16T16:39:32.901Z,7.93
2018-10-16T16:42:01.735Z,10.53
2018-10-16T16:44:31.133Z,12.67
2018-10-16T16:47:00.004Z,11.07
2018-10-16T16:49:30.098Z,7.90
2018-10-16T16:51:59.273Z,12.80
2018-10-16T16:54:28.541Z,12.63
2018-10-16T16:56:58.263Z,14.73
2018-10-16T16:59:27.628Z,16.17
2018-10-16T17:01:56.725Z,10.87
2018-10-16T17:04:25.957Z,8.87
2018-10-16T17:09:35.900Z,17.20
2018-10-16T17:12:05.179Z,11.67
2018-10-16T17:14:34.104Z,15.03
2018-10-16T17:17:03.191Z,9.10
2018-10-16T17:19:32.157Z,14.03
2018-10-16T17:22:01.156Z,13.73
2018-10-16T17:24:30.204Z,33.23
2018-10-16T17:27:01.010Z,24.90
2018-10-16T17:29:31.907Z,20.00
2018-10-16T17:32:04.221Z,16.20
2018-10-16T17:34:34.514Z,23.40
2018-10-16T17:37:05.956Z,16.13
2018-10-16T17:39:37.007Z,13.40
2018-10-16T17:42:06.176Z,13.13
2018-10-16T17:44:38.936Z,14.87
2018-10-16T17:47:12.486Z,15.87
2018-10-16T17:49:44.310Z,14.37
2018-10-16T17:52:17.752Z,20.70
2018-10-16T17:54:50.187Z,13.93
2018-10-16T17:57:23.484Z,15.13
2018-10-16T17:59:59.169Z,12.57
2018-10-16T18:02:32.120Z,14.30
2018-10-16T18:05:04.170Z,16.50
2018-10-16T18:07:36.406Z,17.67
2018-10-16T18:10:09.345Z,12.60
2018-10-16T18:15:32.119Z,12.33
2018-10-16T18:18:00.855Z,10.97
2018-10-16T18:23:46.270Z,14.10
2018-10-16T18:26:18.050Z,15.17
2018-10-16T18:28:48.497Z,12.80
2018-10-16T18:31:17.796Z,18.80
2018-10-16T18:33:48.661Z,16.87
2018-10-16T18:36:17.196Z,16.10
2018-10-16T18:38:48.125Z,14.07
2018-10-16T18:41:22.369Z,16.97
2018-10-16T18:43:54.657Z,14.53
2018-10-16T18:46:28.144Z,13.37
2018-10-16T18:48:57.502Z,18.27
2018-10-16T18:51:26.123Z,14.07
2018-10-16T18:53:55.005Z,17.97
2018-10-16T18:56:23.839Z,14.30
2018-10-16T18:58:52.978Z,15.10
2018-10-16T19:01:22.037Z,20.73
2018-10-16T19:03:50.602Z,17.67
2018-10-16T19:06:19.576Z,19.07
2018-10-16T19:08:48.257Z,17.80
2018-10-16T19:11:16.862Z,18.53
2018-10-16T19:13:45.516Z,22.07
2018-10-16T19:16:14.508Z,18.10
2018-10-16T19:18:43.125Z,18.03
2018-10-16T19:21:11.840Z,19.00
2018-10-16T19:23:40.472Z,20.33
2018-10-16T19:26:09.159Z,17.43
2018-10-16T19:28:38.017Z,17.53
2018-10-16T19:31:06.716Z,18.47
2018-10-16T19:33:36.462Z,22.23
2018-10-16T19:36:05.562Z,24.70
2018-10-16T19:38:34.318Z,18.40
2018-10-16T19:41:02.912Z,18.67
2018-10-16T19:43:34.789Z,23.27
2018-10-16T19:46:03.453Z,20.40
2018-10-16T19:48:32.210Z,20.87
2018-10-16T19:51:01.199Z,22.03
2018-10-16T19:53:30.322Z,21.47
2018-10-16T19:55:58.915Z,21.23
2018-10-16T19:58:27.493Z,23.70
2018-10-16T20:00:56.107Z,20.87
2018-10-16T20:03:25.374Z,21.67
2018-10-16T20:05:54.082Z,20.43
2018-10-16T20:08:22.746Z,18.23
2018-10-16T20:10:51.700Z,22.10
2018-10-16T20:13:20.242Z,19.97
2018-10-16T20:15:49.212Z,18.73
2018-10-16T20:18:17.898Z,18.87
2018-10-16T20:20:47.339Z,19.97
2018-10-16T20:23:15.982Z,19.73
2018-10-16T20:25:44.678Z,26.30
2018-10-16T20:28:13.322Z,21.70
2018-10-16T20:30:41.909Z,20.33
2018-10-16T20:33:25.958Z,21.73
2018-10-16T20:35:54.658Z,25.97
2018-10-16T20:38:23.311Z,20.67
2018-10-16T20:40:51.895Z,23.03
2018-10-16T20:43:20.515Z,23.33
2018-10-16T20:45:49.034Z,25.97
2018-10-16T20:48:17.778Z,22.83
2018-10-16T20:50:46.316Z,20.73
2018-10-16T20:53:14.904Z,22.60
2018-10-16T20:55:43.382Z,19.70
2018-10-16T20:58:11.975Z,27.13
2018-10-16T21:00:42.892Z,22.50
2018-10-16T21:03:14.739Z,21.10
2018-10-16T21:05:46.119Z,19.70
2018-10-16T21:08:14.600Z,24.07
2018-10-16T21:10:43.325Z,21.83
2018-10-16T21:13:11.841Z,30.03
2018-10-16T21:15:40.799Z,22.30
2018-10-16T21:18:09.257Z,19.27
2018-10-16T21:20:37.804Z,23.13
2018-10-16T21:23:06.808Z,20.83
2018-10-16T21:25:35.284Z,19.90
2018-10-16T21:28:03.899Z,23.13
2018-10-16T21:30:32.881Z,23.20
2018-10-16T21:33:01.458Z,21.60
2018-10-16T21:35:30.706Z,26.20
2018-10-16T21:37:59.503Z,28.67
2018-10-16T21:40:28.214Z,24.23
2018-10-16T21:42:56.785Z,31.17
2018-10-16T21:45:25.585Z,25.83
2018-10-16T21:47:54.022Z,26.20
2018-10-16T21:50:22.466Z,25.93
2018-10-16T21:52:51.089Z,24.13
2018-10-16T21:55:19.581Z,24.70
2018-10-16T21:57:48.072Z,20.67
2018-10-16T22:00:21.828Z,25.70
2018-10-16T22:02:50.791Z,24.97
2018-10-16T22:05:22.031Z,23.33
2018-10-16T22:07:51.960Z,23.23
2018-10-16T22:10:20.966Z,29.60
2018-10-16T22:12:49.400Z,28.47
2018-10-16T22:15:19.190Z,26.27
2018-10-16T22:17:47.637Z,25.53
2018-10-16T22:20:16.076Z,27.87
2018-10-16T22:22:45.314Z,22.80
2018-10-16T22:25:14.548Z,31.10
2018-10-16T22:27:43.049Z,24.43
2018-10-16T22:30:12.288Z,24.97
2018-10-16T22:32:40.730Z,24.77
2018-10-16T22:35:10.555Z,22.70
2018-10-16T22:37:39.784Z,23.90
2018-10-16T22:40:10.120Z,33.20
2018-10-16T22:42:38.642Z,22.77
2018-10-16T22:45:07.877Z,23.30
2018-10-16T22:47:36.313Z,22.63
2018-10-16T22:50:06.099Z,24.80
2018-10-16T22:52:34.592Z,23.30
2018-10-16T22:55:03.125Z,26.43
2018-10-16T22:57:31.605Z,24.53
2018-10-16T23:00:00.033Z,27.97
2018-10-16T23:02:28.444Z,22.73
2018-10-16T23:04:57.031Z,24.20
2018-10-16T23:07:25.622Z,24.83
2018-10-16T23:09:54.055Z,27.87
2018-10-16T23:12:22.596Z,26.47
2018-10-16T23:14:51.145Z,25.80
2018-10-16T23:17:19.578Z,25.37
2018-10-16T23:19:47.983Z,29.50
2018-10-16T23:22:16.425Z,34.33
2018-10-16T23:24:44.863Z,35.37
2018-10-16T23:27:13.234Z,32.03
2018-10-16T23:29:41.611Z,26.97
2018-10-16T23:32:10.091Z,24.57
2018-10-16T23:34:38.590Z,46.70
2018-10-16T23:37:07.563Z,32.13
2018-10-16T23:39:36.206Z,35.13
2018-10-16T23:42:04.666Z,33.13
2018-10-16T23:44:33.150Z,35.10
2018-10-16T23:47:02.354Z,28.80
2018-10-16T23:49:30.782Z,30.90
2018-10-16T23:51:59.309Z,31.40
2018-10-16T23:54:27.765Z,33.10
2018-10-16T23:56:56.273Z,35.60
2018-10-16T23:59:24.742Z,36.47
